sensor_id;sensor_type;location;lat;lon;timestamp;pressure;altitude;pressure_sealevel;temperature;humidity
5609;BME280;2826;51.354;9.588;2022-10-31T00:00:31;98628.41;;;13.44;93.81
5609;BME280;2826;51.354;9.588;2022-10-31T00:02:58;98620.94;;;13.36;94.27
5609;BME280;2826;51.354;9.588;2022-10-31T00:05:25;98622.16;;;13.29;94.12
5609;BME280;2826;51.354;9.588;2022-10-31T00:07:52;98621.63;;;13.20;94.23
5609;BME280;2826;51.354;9.588;2022-10-31T00:10:20;98630.59;;;13.13;94.70
5609;BME280;2826;51.354;9.588;2022-10-31T00:12:47;98629.03;;;13.09;94.86
5609;BME280;2826;51.354;9.588;2022-10-31T00:15:14;98630.94;;;13.05;94.58
5609;BME280;2826;51.354;9.588;2022-10-31T00:17:41;98633.66;;;13.02;95.03
5609;BME280;2826;51.354;9.588;2022-10-31T00:20:08;98634.69;;;12.98;94.90
5609;BME280;2826;51.354;9.588;2022-10-31T00:22:36;98633.88;;;12.98;95.00
5609;BME280;2826;51.354;9.588;2022-10-31T00:25:03;98646.16;;;12.94;94.89
5609;BME280;2826;51.354;9.588;2022-10-31T00:27:31;98641.16;;;12.89;94.82
5609;BME280;2826;51.354;9.588;2022-10-31T00:29:58;98641.34;;;12.85;94.97
5609;BME280;2826;51.354;9.588;2022-10-31T00:32:25;98650.38;;;12.76;94.91
5609;BME280;2826;51.354;9.588;2022-10-31T00:34:52;98648.16;;;12.66;95.60
5609;BME280;2826;51.354;9.588;2022-10-31T00:37:19;98647.63;;;12.58;95.77
5609;BME280;2826;51.354;9.588;2022-10-31T00:39:46;98652.22;;;12.51;95.99
5609;BME280;2826;51.354;9.588;2022-10-31T00:42:14;98653.41;;;12.43;96.15
5609;BME280;2826;51.354;9.588;2022-10-31T00:44:44;98645.88;;;12.36;96.18
5609;BME280;2826;51.354;9.588;2022-10-31T00:47:11;98659.03;;;12.32;96.59
5609;BME280;2826;51.354;9.588;2022-10-31T00:49:38;98662.53;;;12.31;97.59
5609;BME280;2826;51.354;9.588;2022-10-31T00:52:05;98664.19;;;12.33;97.74
5609;BME280;2826;51.354;9.588;2022-10-31T00:54:32;98662.38;;;12.35;97.90
5609;BME280;2826;51.354;9.588;2022-10-31T00:56:59;98666.66;;;12.36;98.40
5609;BME280;2826;51.354;9.588;2022-10-31T00:59:26;98676.22;;;12.36;98.22
5609;BME280;2826;51.354;9.588;2022-10-31T01:01:55;98677.97;;;12.35;98.39
5609;BME280;2826;51.354;9.588;2022-10-31T01:04:22;98673.66;;;12.34;98.40
5609;BME280;2826;51.354;9.588;2022-10-31T01:06:49;98669.31;;;12.35;98.99
5609;BME280;2826;51.354;9.588;2022-10-31T01:09:16;98672.84;;;12.34;98.78
5609;BME280;2826;51.354;9.588;2022-10-31T01:11:43;98676.34;;;12.33;99.01
5609;BME280;2826;51.354;9.588;2022-10-31T01:14:09;98670.34;;;12.31;99.19
5609;BME280;2826;51.354;9.588;2022-10-31T01:16:36;98673.88;;;12.30;99.30
5609;BME280;2826;51.354;9.588;2022-10-31T01:19:04;98678.25;;;12.27;99.73
5609;BME280;2826;51.354;9.588;2022-10-31T01:21:31;98679.97;;;12.28;100.00
5609;BME280;2826;51.354;9.588;2022-10-31T01:23:59;98669.56;;;12.28;99.64
5609;BME280;2826;51.354;9.588;2022-10-31T01:26:29;98681.59;;;12.31;100.00
5609;BME280;2826;51.354;9.588;2022-10-31T01:28:57;98674.63;;;12.32;99.90
5609;BME280;2826;51.354;9.588;2022-10-31T01:31:26;98666.06;;;12.30;100.00
5609;BME280;2826;51.354;9.588;2022-10-31T01:33:54;98670.41;;;12.29;100.00
5609;BME280;2826;51.354;9.588;2022-10-31T01:36:24;98677.22;;;12.32;100.00
5609;BME280;2826;51.354;9.588;2022-10-31T01:38:53;98675.44;;;12.34;100.00
5609;BME280;2826;51.354;9.588;2022-10-31T01:41:21;98673.66;;;12.34;100.00
5609;BME280;2826;51.354;9.588;2022-10-31T01:43:53;98678.94;;;12.33;100.00
5609;BME280;2826;51.354;9.588;2022-10-31T01:46:23;98676.34;;;12.33;100.00
5609;BME280;2826;51.354;9.588;2022-10-31T01:48:52;98681.56;;;12.33;100.00
5609;BME280;2826;51.354;9.588;2022-10-31T01:51:25;98674.63;;;12.32;100.00
5609;BME280;2826;51.354;9.588;2022-10-31T01:53:54;98669.50;;;12.30;100.00
5609;BME280;2826;51.354;9.588;2022-10-31T01:56:23;98673.00;;;12.29;100.00
5609;BME280;2826;51.354;9.588;2022-10-31T01:58:51;98670.53;;;12.26;100.00
5609;BME280;2826;51.354;9.588;2022-10-31T02:01:19;98651.84;;;12.16;100.00
5609;BME280;2826;51.354;9.588;2022-10-31T02:03:47;98671.84;;;12.14;100.00
5609;BME280;2826;51.354;9.588;2022-10-31T02:06:21;98672.19;;;12.03;100.00
5609;BME280;2826;51.354;9.588;2022-10-31T02:08:53;98670.75;;;11.96;100.00
5609;BME280;2826;51.354;9.588;2022-10-31T02:11:21;98679.72;;;11.87;100.00
5609;BME280;2826;51.354;9.588;2022-10-31T02:13:49;98681.69;;;11.80;100.00
5609;BME280;2826;51.354;9.588;2022-10-31T02:16:16;98685.50;;;11.71;100.00
5609;BME280;2826;51.354;9.588;2022-10-31T02:18:43;98682.16;;;11.68;100.00
5609;BME280;2826;51.354;9.588;2022-10-31T02:21:15;98692.81;;;11.60;100.00
5609;BME280;2826;51.354;9.588;2022-10-31T02:26:58;98682.81;;;11.49;100.00
5609;BME280;2826;51.354;9.588;2022-10-31T02:30:06;98682.16;;;11.42;100.00
5609;BME280;2826;51.354;9.588;2022-10-31T02:32:52;98688.50;;;11.35;100.00
5609;BME280;2826;51.354;9.588;2022-10-31T02:35:31;98680.91;;;11.29;100.00
5609;BME280;2826;51.354;9.588;2022-10-31T02:38:09;98679.31;;;11.24;100.00
5609;BME280;2826;51.354;9.588;2022-10-31T02:40:46;98680.25;;;11.22;100.00
5609;BME280;2826;51.354;9.588;2022-10-31T02:43:40;98675.13;;;11.20;100.00
5609;BME280;2826;51.354;9.588;2022-10-31T02:46:13;98664.97;;;11.14;100.00
5609;BME280;2826;51.354;9.588;2022-10-31T02:48:45;98676.88;;;11.20;100.00
5609;BME280;2826;51.354;9.588;2022-10-31T02:51:15;98675.19;;;11.19;100.00
5609;BME280;2826;51.354;9.588;2022-10-31T02:53:43;98682.16;;;11.17;100.00
5609;BME280;2826;51.354;9.588;2022-10-31T02:56:12;98676.19;;;11.15;100.00
5609;BME280;2826;51.354;9.588;2022-10-31T02:58:42;98677.97;;;11.13;100.00
5609;BME280;2826;51.354;9.588;2022-10-31T03:01:22;98658.56;;;10.97;100.00
5609;BME280;2826;51.354;9.588;2022-10-31T03:04:16;98671.97;;;11.12;100.00
5609;BME280;2826;51.354;9.588;2022-10-31T03:06:52;98661.81;;;11.04;100.00
5609;BME280;2826;51.354;9.588;2022-10-31T03:09:29;98676.38;;;11.08;100.00
5609;BME280;2826;51.354;9.588;2022-10-31T03:12:06;98673.97;;;11.04;100.00
5609;BME280;2826;51.354;9.588;2022-10-31T03:14:40;98680.88;;;11.03;100.00
5609;BME280;2826;51.354;9.588;2022-10-31T03:17:11;98647.03;;;10.81;100.00
5609;BME280;2826;51.354;9.588;2022-10-31T03:19:43;98679.16;;;11.04;100.00
5609;BME280;2826;51.354;9.588;2022-10-31T03:22:16;98678.25;;;11.05;100.00
5609;BME280;2826;51.354;9.588;2022-10-31T03:24:45;98673.00;;;11.06;100.00
5609;BME280;2826;51.354;9.588;2022-10-31T03:27:15;98672.16;;;11.06;100.00
5609;BME280;2826;51.354;9.588;2022-10-31T03:29:43;98673.00;;;11.06;100.00
5609;BME280;2826;51.354;9.588;2022-10-31T03:32:12;98668.72;;;11.05;100.00
5609;BME280;2826;51.354;9.588;2022-10-31T03:34:45;98657.47;;;11.05;100.00
5609;BME280;2826;51.354;9.588;2022-10-31T03:37:17;98663.69;;;11.01;100.00
5609;BME280;2826;51.354;9.588;2022-10-31T03:39:46;98661.13;;;10.99;100.00
5609;BME280;2826;51.354;9.588;2022-10-31T03:42:17;98668.13;;;10.97;100.00
5609;BME280;2826;51.354;9.588;2022-10-31T03:44:48;98670.78;;;10.95;100.00
5609;BME280;2826;51.354;9.588;2022-10-31T03:47:17;98676.91;;;10.93;100.00
5609;BME280;2826;51.354;9.588;2022-10-31T03:49:49;98688.25;;;10.90;100.00
5609;BME280;2826;51.354;9.588;2022-10-31T03:52:21;98690.03;;;10.88;100.00
5609;BME280;2826;51.354;9.588;2022-10-31T03:54:53;98690.22;;;10.82;100.00
5609;BME280;2826;51.354;9.588;2022-10-31T03:57:24;98700.53;;;10.85;100.00
5609;BME280;2826;51.354;9.588;2022-10-31T03:59:57;98700.53;;;10.85;100.00
5609;BME280;2826;51.354;9.588;2022-10-31T04:02:30;98698.72;;;10.87;100.00
5609;BME280;2826;51.354;9.588;2022-10-31T04:04:59;98696.06;;;10.89;100.00
5609;BME280;2826;51.354;9.588;2022-10-31T04:07:33;98696.97;;;10.88;100.00
5609;BME280;2826;51.354;9.588;2022-10-31T04:10:05;98702.94;;;10.90;100.00
5609;BME280;2826;51.354;9.588;2022-10-31T04:12:34;98698.66;;;10.89;100.00
5609;BME280;2826;51.354;9.588;2022-10-31T04:15:16;98700.53;;;10.85;100.00
5609;BME280;2826;51.354;9.588;2022-10-31T04:17:45;98698.09;;;10.79;100.00
5609;BME280;2826;51.354;9.588;2022-10-31T04:20:17;98693.09;;;10.74;100.00
5609;BME280;2826;51.354;9.588;2022-10-31T04:22:44;98689.66;;;10.72;100.00
5609;BME280;2826;51.354;9.588;2022-10-31T04:25:11;98665.97;;;10.56;100.00
5609;BME280;2826;51.354;9.588;2022-10-31T04:27:38;98687.25;;;10.67;100.00
5609;BME280;2826;51.354;9.588;2022-10-31T04:30:09;98687.16;;;10.69;100.00
5609;BME280;2826;51.354;9.588;2022-10-31T04:32:39;98685.53;;;10.66;100.00
5609;BME280;2826;51.354;9.588;2022-10-31T04:35:07;98681.22;;;10.65;100.00
5609;BME280;2826;51.354;9.588;2022-10-31T04:37:35;98685.59;;;10.65;100.00
5609;BME280;2826;51.354;9.588;2022-10-31T04:40:04;98685.63;;;10.63;100.00
5609;BME280;2826;51.354;9.588;2022-10-31T04:42:51;98687.47;;;10.59;100.00
5609;BME280;2826;51.354;9.588;2022-10-31T04:45:18;98698.00;;;10.55;100.00
5609;BME280;2826;51.354;9.588;2022-10-31T04:47:47;98689.56;;;10.48;100.00
5609;BME280;2826;51.354;9.588;2022-10-31T04:50:14;98688.81;;;10.43;100.00
5609;BME280;2826;51.354;9.588;2022-10-31T04:52:45;98685.44;;;10.39;100.00
5609;BME280;2826;51.354;9.588;2022-10-31T04:55:16;98687.38;;;10.32;100.00
5609;BME280;2826;51.354;9.588;2022-10-31T04:58:02;98666.31;;;10.15;100.00
5609;BME280;2826;51.354;9.588;2022-10-31T05:00:29;98678.91;;;10.27;100.00
5609;BME280;2826;51.354;9.588;2022-10-31T05:02:57;98674.63;;;10.26;100.00
5609;BME280;2826;51.354;9.588;2022-10-31T05:05:28;98684.78;;;10.32;100.00
5609;BME280;2826;51.354;9.588;2022-10-31T05:07:56;98665.16;;;10.25;100.00
5609;BME280;2826;51.354;9.588;2022-10-31T05:10:26;98672.81;;;10.28;100.00
5609;BME280;2826;51.354;9.588;2022-10-31T05:12:59;98682.06;;;10.37;100.00
5609;BME280;2826;51.354;9.588;2022-10-31T05:15:45;98682.97;;;10.36;100.00
5609;BME280;2826;51.354;9.588;2022-10-31T05:18:30;98683.84;;;10.35;100.00
5609;BME280;2826;51.354;9.588;2022-10-31T05:21:01;98687.31;;;10.36;100.00
5609;BME280;2826;51.354;9.588;2022-10-31T05:23:36;98680.44;;;10.35;100.00
5609;BME280;2826;51.354;9.588;2022-10-31T05:26:06;98676.97;;;10.34;100.00
5609;BME280;2826;51.354;9.588;2022-10-31T05:28:33;98685.59;;;10.35;100.00
5609;BME280;2826;51.354;9.588;2022-10-31T05:31:02;98685.66;;;10.33;100.00
5609;BME280;2826;51.354;9.588;2022-10-31T05:33:30;98681.41;;;10.30;100.00
5609;BME280;2826;51.354;9.588;2022-10-31T05:36:15;98678.19;;;10.22;100.00
5609;BME280;2826;51.354;9.588;2022-10-31T05:38:52;98673.13;;;10.17;100.00
5609;BME280;2826;51.354;9.588;2022-10-31T05:41:23;98679.25;;;10.15;100.00
5609;BME280;2826;51.354;9.588;2022-10-31T05:43:54;98676.81;;;10.10;100.00
5609;BME280;2826;51.354;9.588;2022-10-31T05:46:26;98683.78;;;10.08;100.00
5609;BME280;2826;51.354;9.588;2022-10-31T05:49:17;98677.19;;;9.98;100.00
5609;BME280;2826;51.354;9.588;2022-10-31T05:52:03;98687.00;;;9.86;100.00
5609;BME280;2826;51.354;9.588;2022-10-31T05:54:45;98684.59;;;9.80;100.00
5609;BME280;2826;51.354;9.588;2022-10-31T05:57:12;98691.56;;;9.78;100.00
5609;BME280;2826;51.354;9.588;2022-10-31T05:59:39;98688.22;;;9.73;100.00
5609;BME280;2826;51.354;9.588;2022-10-31T06:02:06;98669.56;;;9.61;100.00
5609;BME280;2826;51.354;9.588;2022-10-31T06:04:51;98679.69;;;9.69;100.00
5609;BME280;2826;51.354;9.588;2022-10-31T06:07:18;98690.06;;;9.69;100.00
5609;BME280;2826;51.354;9.588;2022-10-31T06:09:47;98684.13;;;9.65;100.00
5609;BME280;2826;51.354;9.588;2022-10-31T06:12:14;98680.69;;;9.65;100.00
5609;BME280;2826;51.354;9.588;2022-10-31T06:15:08;98685.81;;;9.66;100.00
5609;BME280;2826;51.354;9.588;2022-10-31T06:17:35;98683.22;;;9.66;100.00
5609;BME280;2826;51.354;9.588;2022-10-31T06:20:22;98679.75;;;9.67;100.00
5609;BME280;2826;51.354;9.588;2022-10-31T06:22:56;98686.69;;;9.67;100.00
5609;BME280;2826;51.354;9.588;2022-10-31T06:25:25;98692.69;;;9.67;100.00
5609;BME280;2826;51.354;9.588;2022-10-31T06:27:53;98684.09;;;9.67;100.00
5609;BME280;2826;51.354;9.588;2022-10-31T06:30:24;98687.44;;;9.71;100.00
5609;BME280;2826;51.354;9.588;2022-10-31T06:32:51;98687.22;;;9.78;100.00
5609;BME280;2826;51.354;9.588;2022-10-31T06:35:19;98687.94;;;9.84;100.00
5609;BME280;2826;51.354;9.588;2022-10-31T06:37:53;98690.38;;;9.90;100.00
5609;BME280;2826;51.354;9.588;2022-10-31T06:40:37;98685.03;;;9.94;100.00
5609;BME280;2826;51.354;9.588;2022-10-31T06:43:25;98680.53;;;10.01;100.00
5609;BME280;2826;51.354;9.588;2022-10-31T06:46:10;98686.47;;;10.05;100.00
5609;BME280;2826;51.354;9.588;2022-10-31T06:48:48;98689.78;;;10.10;100.00
5609;BME280;2826;51.354;9.588;2022-10-31T06:51:19;98690.44;;;10.17;100.00
5609;BME280;2826;51.354;9.588;2022-10-31T06:53:48;98686.84;;;10.23;100.00
5609;BME280;2826;51.354;9.588;2022-10-31T06:56:19;98690.97;;;10.28;100.00
5609;BME280;2826;51.354;9.588;2022-10-31T06:58:51;98695.13;;;10.34;100.00
5609;BME280;2826;51.354;9.588;2022-10-31T07:01:29;98695.00;;;10.39;100.00
5609;BME280;2826;51.354;9.588;2022-10-31T07:03:57;98693.97;;;10.44;100.00
5609;BME280;2826;51.354;9.588;2022-10-31T07:06:24;98700.75;;;10.49;100.00
5609;BME280;2826;51.354;9.588;2022-10-31T07:08:51;98694.59;;;10.53;100.00
5609;BME280;2826;51.354;9.588;2022-10-31T07:11:19;98701.31;;;10.58;100.00
5609;BME280;2826;51.354;9.588;2022-10-31T07:13:47;98697.69;;;10.64;100.00
5609;BME280;2826;51.354;9.588;2022-10-31T07:16:14;98698.44;;;10.68;100.00
5609;BME280;2826;51.354;9.588;2022-10-31T07:18:42;98695.72;;;10.73;100.00
5609;BME280;2826;51.354;9.588;2022-10-31T07:21:11;98692.97;;;10.77;100.00
5609;BME280;2826;51.354;9.588;2022-10-31T07:23:39;98692.81;;;10.82;100.00
5609;BME280;2826;51.354;9.588;2022-10-31T07:26:34;98689.19;;;10.88;100.00
5609;BME280;2826;51.354;9.588;2022-10-31T07:29:01;98698.50;;;10.93;100.00
5609;BME280;2826;51.354;9.588;2022-10-31T07:31:28;98699.16;;;11.00;100.00
5609;BME280;2826;51.354;9.588;2022-10-31T07:34:01;98698.91;;;11.08;100.00
5609;BME280;2826;51.354;9.588;2022-10-31T07:36:27;98693.47;;;11.16;100.00
5609;BME280;2826;51.354;9.588;2022-10-31T07:39:03;98683.94;;;11.16;100.00
5609;BME280;2826;51.354;9.588;2022-10-31T07:41:34;98699.13;;;11.27;100.00
5609;BME280;2826;51.354;9.588;2022-10-31T07:44:01;98697.38;;;11.28;100.00
5609;BME280;2826;51.354;9.588;2022-10-31T07:46:28;98701.66;;;11.29;100.00
5609;BME280;2826;51.354;9.588;2022-10-31T07:49:31;98700.03;;;11.26;100.00
5609;BME280;2826;51.354;9.588;2022-10-31T07:52:16;98705.03;;;11.32;100.00
5609;BME280;2826;51.354;9.588;2022-10-31T07:55:10;98705.66;;;11.39;100.00
5609;BME280;2826;51.354;9.588;2022-10-31T07:57:38;98704.81;;;11.39;100.00
5609;BME280;2826;51.354;9.588;2022-10-31T08:00:08;98709.13;;;11.38;100.00
5609;BME280;2826;51.354;9.588;2022-10-31T08:02:40;98651.47;;;11.03;100.00
5609;BME280;2826;51.354;9.588;2022-10-31T08:05:44;98713.91;;;11.25;100.00
5609;BME280;2826;51.354;9.588;2022-10-31T08:08:30;98708.94;;;11.19;100.00
5609;BME280;2826;51.354;9.588;2022-10-31T08:10:58;98713.06;;;11.24;100.00
5609;BME280;2826;51.354;9.588;2022-10-31T08:13:26;98703.31;;;11.31;100.00
5609;BME280;2826;51.354;9.588;2022-10-31T08:15:53;98710.72;;;11.42;100.00
5609;BME280;2826;51.354;9.588;2022-10-31T08:18:24;98718.09;;;11.55;100.00
5609;BME280;2826;51.354;9.588;2022-10-31T08:20:53;98719.31;;;11.70;100.00
5609;BME280;2826;51.354;9.588;2022-10-31T08:23:20;98721.44;;;11.84;100.00
5609;BME280;2826;51.354;9.588;2022-10-31T08:25:47;98714.31;;;11.89;100.00
5609;BME280;2826;51.354;9.588;2022-10-31T08:28:14;98719.63;;;11.86;100.00
5609;BME280;2826;51.354;9.588;2022-10-31T08:30:44;98708.34;;;11.85;100.00
5609;BME280;2826;51.354;9.588;2022-10-31T08:33:31;98712.53;;;11.89;100.00
5609;BME280;2826;51.354;9.588;2022-10-31T08:36:19;98708.78;;;11.98;100.00
5609;BME280;2826;51.354;9.588;2022-10-31T08:39:09;98709.38;;;12.07;100.00
5609;BME280;2826;51.354;9.588;2022-10-31T08:41:38;98709.94;;;12.15;100.00
5609;BME280;2826;51.354;9.588;2022-10-31T08:44:10;98705.28;;;12.23;100.00
5609;BME280;2826;51.354;9.588;2022-10-31T08:46:38;98695.75;;;12.24;100.00
5609;BME280;2826;51.354;9.588;2022-10-31T08:49:05;98696.91;;;12.39;100.00
5609;BME280;2826;51.354;9.588;2022-10-31T08:51:33;98692.81;;;12.56;100.00
5609;BME280;2826;51.354;9.588;2022-10-31T08:54:00;98693.81;;;12.74;100.00
5609;BME280;2826;51.354;9.588;2022-10-31T08:56:53;98688.06;;;12.88;100.00
5609;BME280;2826;51.354;9.588;2022-10-31T08:59:34;98695.81;;;13.10;100.00
5609;BME280;2826;51.354;9.588;2022-10-31T09:02:23;98689.06;;;13.27;100.00
5609;BME280;2826;51.354;9.588;2022-10-31T09:04:52;98686.13;;;13.35;100.00
5609;BME280;2826;51.354;9.588;2022-10-31T09:07:19;98686.72;;;13.41;100.00
5609;BME280;2826;51.354;9.588;2022-10-31T09:09:46;98695.38;;;13.42;100.00
5609;BME280;2826;51.354;9.588;2022-10-31T09:12:13;98687.50;;;13.43;100.00
5609;BME280;2826;51.354;9.588;2022-10-31T09:14:59;98684.03;;;13.43;99.79
5609;BME280;2826;51.354;9.588;2022-10-31T09:17:38;98691.03;;;13.42;99.67
5609;BME280;2826;51.354;9.588;2022-10-31T09:20:29;98684.91;;;13.43;98.19
5609;BME280;2826;51.354;9.588;2022-10-31T09:22:57;98681.06;;;13.52;99.04
5609;BME280;2826;51.354;9.588;2022-10-31T09:25:26;98673.50;;;13.67;98.42
5609;BME280;2826;51.354;9.588;2022-10-31T09:28:15;98658.28;;;13.77;97.78
5609;BME280;2826;51.354;9.588;2022-10-31T09:30:45;98669.22;;;13.85;97.43
5609;BME280;2826;51.354;9.588;2022-10-31T09:33:19;98675.44;;;14.02;97.27
5609;BME280;2826;51.354;9.588;2022-10-31T09:35:59;98670.00;;;14.06;97.95
5609;BME280;2826;51.354;9.588;2022-10-31T09:38:26;98670.34;;;14.18;97.95
5609;BME280;2826;51.354;9.588;2022-10-31T09:40:55;98672.66;;;14.24;97.13
5609;BME280;2826;51.354;9.588;2022-10-31T09:43:34;98668.06;;;14.29;96.84
5609;BME280;2826;51.354;9.588;2022-10-31T09:46:09;98668.94;;;14.30;97.12
5609;BME280;2826;51.354;9.588;2022-10-31T09:49:02;98671.16;;;14.37;97.31
5609;BME280;2826;51.354;9.588;2022-10-31T09:51:51;98673.50;;;14.44;95.61
5609;BME280;2826;51.354;9.588;2022-10-31T09:54:28;98668.13;;;14.47;94.59
5609;BME280;2826;51.354;9.588;2022-10-31T09:56:58;98665.22;;;14.53;94.18
5609;BME280;2826;51.354;9.588;2022-10-31T09:59:29;98667.59;;;14.58;93.13
5609;BME280;2826;51.354;9.588;2022-10-31T10:02:00;98660.56;;;14.60;92.97
5609;BME280;2826;51.354;9.588;2022-10-31T10:04:38;98657.03;;;14.61;92.60
5609;BME280;2826;51.354;9.588;2022-10-31T10:07:20;98654.97;;;14.68;91.86
5609;BME280;2826;51.354;9.588;2022-10-31T10:10:26;98647.63;;;14.76;90.85
5609;BME280;2826;51.354;9.588;2022-10-31T10:13:32;98637.22;;;14.74;91.11
5609;BME280;2826;51.354;9.588;2022-10-31T10:16:13;98644.88;;;14.97;91.15
5609;BME280;2826;51.354;9.588;2022-10-31T10:18:50;98641.41;;;15.14;90.88
5609;BME280;2826;51.354;9.588;2022-10-31T10:21:34;98644.81;;;15.32;91.18
5609;BME280;2826;51.354;9.588;2022-10-31T10:24:15;98644.50;;;15.56;90.13
5609;BME280;2826;51.354;9.588;2022-10-31T10:26:52;98634.22;;;15.69;87.94
5609;BME280;2826;51.354;9.588;2022-10-31T10:29:33;98630.44;;;15.75;87.24
5609;BME280;2826;51.354;9.588;2022-10-31T10:32:06;98632.63;;;15.83;87.93
5609;BME280;2826;51.354;9.588;2022-10-31T10:34:40;98629.44;;;15.93;86.79
5609;BME280;2826;51.354;9.588;2022-10-31T10:37:18;98631.16;;;15.94;86.85
5609;BME280;2826;51.354;9.588;2022-10-31T10:39:51;98619.44;;;16.02;87.32
5609;BME280;2826;51.354;9.588;2022-10-31T10:42:20;98624.41;;;16.23;86.73
5609;BME280;2826;51.354;9.588;2022-10-31T10:45:14;98577.56;;;16.18;85.66
5609;BME280;2826;51.354;9.588;2022-10-31T10:48:06;98614.63;;;16.57;85.37
5609;BME280;2826;51.354;9.588;2022-10-31T10:50:39;98624.56;;;16.66;83.85
5609;BME280;2826;51.354;9.588;2022-10-31T10:53:21;98615.28;;;16.77;84.42
5609;BME280;2826;51.354;9.588;2022-10-31T10:56:06;98618.78;;;16.92;83.93
5609;BME280;2826;51.354;9.588;2022-10-31T10:58:35;98613.94;;;17.00;82.60
5609;BME280;2826;51.354;9.588;2022-10-31T11:01:10;98616.59;;;17.15;81.94
5609;BME280;2826;51.354;9.588;2022-10-31T11:03:38;98596.66;;;17.27;81.22
5609;BME280;2826;51.354;9.588;2022-10-31T11:06:16;98596.66;;;17.41;80.07
5609;BME280;2826;51.354;9.588;2022-10-31T11:08:47;98596.56;;;17.43;79.75
5609;BME280;2826;51.354;9.588;2022-10-31T11:11:23;98593.47;;;17.50;79.38
5609;BME280;2826;51.354;9.588;2022-10-31T11:13:57;98587.78;;;17.44;79.32
5609;BME280;2826;51.354;9.588;2022-10-31T11:16:32;98596.31;;;17.47;79.21
5609;BME280;2826;51.354;9.588;2022-10-31T11:19:09;98567.91;;;17.40;79.37
5609;BME280;2826;51.354;9.588;2022-10-31T11:21:41;98582.16;;;17.65;79.24
5609;BME280;2826;51.354;9.588;2022-10-31T11:24:15;98581.56;;;17.74;77.94
5609;BME280;2826;51.354;9.588;2022-10-31T11:26:45;98581.28;;;17.79;77.18
5609;BME280;2826;51.354;9.588;2022-10-31T11:29:15;98571.25;;;17.85;76.76
5609;BME280;2826;51.354;9.588;2022-10-31T11:31:44;98554.69;;;17.70;75.21
5609;BME280;2826;51.354;9.588;2022-10-31T11:34:23;98576.50;;;17.85;75.49
5609;BME280;2826;51.354;9.588;2022-10-31T11:36:53;98570.94;;;17.90;75.25
5609;BME280;2826;51.354;9.588;2022-10-31T11:39:23;98567.94;;;17.96;75.62
5609;BME280;2826;51.354;9.588;2022-10-31T11:41:52;98564.59;;;18.07;74.83
5609;BME280;2826;51.354;9.588;2022-10-31T11:44:23;98565.84;;;18.16;74.19
5609;BME280;2826;51.354;9.588;2022-10-31T11:46:54;98562.06;;;18.20;74.35
5609;BME280;2826;51.354;9.588;2022-10-31T11:49:28;98561.88;;;18.23;73.34
5609;BME280;2826;51.354;9.588;2022-10-31T11:51:59;98554.75;;;18.25;73.61
5609;BME280;2826;51.354;9.588;2022-10-31T11:54:29;98549.41;;;18.40;72.74
5609;BME280;2826;51.354;9.588;2022-10-31T11:56:59;98542.91;;;18.46;72.68
5609;BME280;2826;51.354;9.588;2022-10-31T11:59:28;98548.75;;;18.64;72.58
5609;BME280;2826;51.354;9.588;2022-10-31T12:01:57;98505.25;;;18.60;72.19
5609;BME280;2826;51.354;9.588;2022-10-31T12:04:31;98544.56;;;19.00;72.20
5609;BME280;2826;51.354;9.588;2022-10-31T12:07:01;98538.59;;;19.11;70.61
5609;BME280;2826;51.354;9.588;2022-10-31T12:09:33;98534.56;;;19.18;69.96
5609;BME280;2826;51.354;9.588;2022-10-31T12:12:30;98538.16;;;19.17;69.68
5609;BME280;2826;51.354;9.588;2022-10-31T12:15:11;98535.13;;;19.11;70.75
5609;BME280;2826;51.354;9.588;2022-10-31T12:17:46;98529.94;;;18.96;70.96
5609;BME280;2826;51.354;9.588;2022-10-31T12:20:21;98526.47;;;18.96;71.10
5609;BME280;2826;51.354;9.588;2022-10-31T12:22:59;98526.78;;;19.04;70.60
5609;BME280;2826;51.354;9.588;2022-10-31T12:25:38;98518.63;;;19.09;69.64
5609;BME280;2826;51.354;9.588;2022-10-31T12:28:40;98513.47;;;19.07;70.56
5609;BME280;2826;51.354;9.588;2022-10-31T12:31:18;98506.81;;;19.14;70.19
5609;BME280;2826;51.354;9.588;2022-10-31T12:33:55;98497.88;;;19.17;69.58
5609;BME280;2826;51.354;9.588;2022-10-31T12:36:34;98491.69;;;19.05;69.69
5609;BME280;2826;51.354;9.588;2022-10-31T12:39:24;98491.50;;;18.95;70.62
5609;BME280;2826;51.354;9.588;2022-10-31T12:41:58;98486.22;;;18.95;71.65
5609;BME280;2826;51.354;9.588;2022-10-31T12:44:47;98483.91;;;18.90;71.72
5609;BME280;2826;51.354;9.588;2022-10-31T12:47:36;98476.75;;;18.79;71.11
5609;BME280;2826;51.354;9.588;2022-10-31T12:50:19;98472.47;;;18.78;71.57
5609;BME280;2826;51.354;9.588;2022-10-31T12:52:56;98464.66;;;18.90;71.45
5609;BME280;2826;51.354;9.588;2022-10-31T12:55:38;98465.22;;;18.95;71.61
5609;BME280;2826;51.354;9.588;2022-10-31T12:58:13;98448.19;;;18.88;71.56
5609;BME280;2826;51.354;9.588;2022-10-31T13:00:44;98458.47;;;18.91;72.08
5609;BME280;2826;51.354;9.588;2022-10-31T13:03:24;98448.69;;;18.93;71.85
5609;BME280;2826;51.354;9.588;2022-10-31T13:05:56;98442.06;;;19.00;72.32
5609;BME280;2826;51.354;9.588;2022-10-31T13:08:28;98440.28;;;19.14;72.24
5609;BME280;2826;51.354;9.588;2022-10-31T13:11:04;98433.59;;;19.34;71.37
5609;BME280;2826;51.354;9.588;2022-10-31T13:13:37;98428.47;;;19.57;70.60
5609;BME280;2826;51.354;9.588;2022-10-31T13:16:12;98425.06;;;19.68;70.36
5609;BME280;2826;51.354;9.588;2022-10-31T13:18:43;98425.28;;;19.65;69.41
5609;BME280;2826;51.354;9.588;2022-10-31T13:21:13;98419.19;;;19.64;70.42
5609;BME280;2826;51.354;9.588;2022-10-31T13:23:44;98423.59;;;19.64;69.43
5609;BME280;2826;51.354;9.588;2022-10-31T13:26:21;98414.84;;;19.63;69.47
5609;BME280;2826;51.354;9.588;2022-10-31T13:28:54;98411.63;;;19.59;68.94
5609;BME280;2826;51.354;9.588;2022-10-31T13:31:22;98416.50;;;19.53;69.54
5609;BME280;2826;51.354;9.588;2022-10-31T13:33:52;98409.16;;;19.45;69.25
5609;BME280;2826;51.354;9.588;2022-10-31T13:36:25;98412.34;;;19.37;68.95
5609;BME280;2826;51.354;9.588;2022-10-31T13:39:03;98403.84;;;19.33;69.25
5609;BME280;2826;51.354;9.588;2022-10-31T13:41:41;98408.38;;;19.31;69.44
5609;BME280;2826;51.354;9.588;2022-10-31T13:44:14;98412.88;;;19.29;69.82
5609;BME280;2826;51.354;9.588;2022-10-31T13:46:43;98400.91;;;19.25;69.79
5609;BME280;2826;51.354;9.588;2022-10-31T13:49:35;98402.09;;;19.21;70.03
5609;BME280;2826;51.354;9.588;2022-10-31T13:52:14;98401.81;;;19.13;70.37
5609;BME280;2826;51.354;9.588;2022-10-31T13:54:42;98379.03;;;18.87;71.17